Impacts METAR Board
IDs:

KGWO - Greenwood/Leflore Ar, MS, US

Updated at: 1300 UTC 21 May 2018
Potential Impact None Slight Moderate High
Time 21/01Z 21/02Z 21/03Z 21/04Z 21/05Z 21/06Z 21/07Z 21/08Z 21/09Z 21/10Z 21/11Z 21/12Z 21/13Z
Temp78 75 76 73 70 71 71 71 71 70 70 72 73
Dewpt66 68 70 71 68 69 69 69 69 68 69 69 70
Altim29.99 30.01 30.02 30.05 30.05 30.05 30.03 30.02 30.01 30.01 30.01 30.04 30.05
VIS10 10 10 0.75 7 10 10 10 10 8 8 7 8
CIG-- -- -- 10 110 110 100 -- -- -- -- -- --
CoverCLRCLRCLROVCOVCBKNBKNFEWCLRCLRSCTFEWCLR
FltCatVFRVFRVFRLIFRVFRVFRVFRVFRVFRVFRVFRVFRVFR
WX------+TSRA BRTSRA-TSRA-RA------------
WDir9034020180210401001201000400130
WSpd5 3 4 23 4 8 3 3 3 0 4 0 4
WGst-- -- -- 30 -- -- -- -- -- -- -- -- --
Raw hourly METARs
KGWO 210053Z AUTO 09005KT 10SM CLR 26/19 A2999 RMK AO2 LTG DSNT NE SLP154 T02560189
KGWO 210153Z AUTO 34003KT 10SM CLR 24/20 A3001 RMK AO2 SLP161 T02390200
KGWO 210253Z AUTO 02004KT 10SM CLR 24/21 A3002 RMK AO2 LTG DSNT SE-W SLP162 T02440211 51010
KGWO 210359Z AUTO 18023G30KT 3/4SM +TSRA BR BKN010 OVC050 23/22 A3005 RMK AO2 PK WND 18030/0357 LTG DSNT ALQDS P0033 T02280217
KGWO 210453Z AUTO 21004KT 7SM TSRA FEW060 SCT095 OVC110 21/20 A3005 RMK AO2 PK WND 20033/0402 WSHFT 0351 LTG DSNT ALQDS TSE43B45 SLP173 P0076 T02110200
KGWO 210553Z AUTO 04008KT 10SM -TSRA BKN110 22/21 A3005 RMK AO2 LTG DSNT N-SE TSE00B31E46B53 SLP172 P0007 60106 T02170206 10256 20211 403330211 55002
KGWO 210653Z AUTO 10003KT 10SM -RA BKN100 22/21 A3003 RMK AO2 TSE08 SLP167 P0005 T02170206
KGWO 210753Z AUTO 12003KT 10SM FEW060 22/21 A3002 RMK AO2 RAE06 SLP164 P0001 T02170206
KGWO 210853Z AUTO 10003KT 10SM CLR 22/21 A3001 RMK AO2 SLP159 60006 T02170206 56013
KGWO 210953Z AUTO 00000KT 8SM CLR 21/20 A3001 RMK AO2 SLP159 T02110200
KGWO 211053Z AUTO 04004KT 8SM SCT065 21/21 A3001 RMK AO2 SLP162 T02110206
KGWO 211204Z AUTO 00000KT 7SM FEW005 22/21 A3004 RMK AO2 T02220206
KGWO 211253Z AUTO 13004KT 8SM CLR 23/21 A3005 RMK AO2 SLP174 T02280211



Page loaded:  13:14 UTC  |   06:14 AM Pacific  |   07:14 AM Mountain  |   08:14 AM Central  |   09:14 AM Eastern

 

ADVISORIES

FORECASTS

FORECASTS

OBSERVATIONS

USER TOOLS

ABOUT US